Time;durP1;ratioP1;P1;durP2;ratioP2;P2;SDS_P1;SDS_P2;PMS_P1;PMS_P2;Temp;Humidity;BMP_temperature;BMP_pressure;BME280_temperature;BME280_humidity;BME280_pressure;Samples;Min_cycle;Max_cycle;Signal;HPM_P1;HPM_P2
2023/03/25 00:00:15;;;;;;;13.48;2.00;;;;;;;9.05;81.30;100111.97;6132970;23;20024;-75
2023/03/25 00:02:43;;;;;;;5.40;1.48;;;;;;;9.02;81.24;100105.59;6159880;23;20014;-74
2023/03/25 00:05:13;;;;;;;7.30;1.85;;;;;;;9.03;81.21;100115.06;6159393;23;20014;-75
2023/03/25 00:07:45;;;;;;;5.78;1.40;;;;;;;9.02;81.07;100111.66;6132556;23;20030;-75
2023/03/25 00:10:12;;;;;;;9.65;1.60;;;;;;;9.00;81.62;100105.31;6159797;23;20038;-75
2023/03/25 00:12:41;;;;;;;5.22;1.75;;;;;;;8.98;81.42;100113.72;6133540;23;20022;-75
2023/03/25 00:15:10;;;;;;;6.80;1.70;;;;;;;8.97;81.41;100120.22;6159620;23;20014;-75
2023/03/25 00:17:37;;;;;;;6.07;1.48;;;;;;;8.97;81.89;100109.59;6159917;23;20024;-75
2023/03/25 00:20:10;;;;;;;8.45;2.05;;;;;;;8.96;81.83;100112.69;6108598;23;20056;-75
2023/03/25 00:22:42;;;;;;;8.93;2.05;;;;;;;8.95;82.36;100111.22;6159379;23;20440;-75
2023/03/25 00:25:19;;;;;;;6.35;1.38;;;;;;;8.93;82.06;100116.97;6133901;23;20018;-75
2023/03/25 00:27:47;;;;;;;7.95;1.70;;;;;;;8.95;82.10;100111.94;6158897;23;20030;-75
2023/03/25 00:30:15;;;;;;;14.77;1.92;;;;;;;8.92;82.13;100110.19;6108389;23;20026;-75
2023/03/25 00:32:48;;;;;;;8.70;1.80;;;;;;;8.91;82.40;100098.09;6108824;23;20456;-75
2023/03/25 00:35:18;;;;;;;16.05;1.73;;;;;;;8.90;82.14;100107.22;6132429;23;20445;-74
2023/03/25 00:37:46;;;;;;;7.85;1.55;;;;;;;8.89;82.34;100108.41;6159119;23;20025;-74
2023/03/25 00:40:13;;;;;;;11.80;1.65;;;;;;;8.89;82.32;100107.66;6108586;23;20029;-75
2023/03/25 00:42:43;;;;;;;8.93;2.00;;;;;;;8.88;81.86;100112.25;6133288;23;20467;-74
2023/03/25 00:45:13;;;;;;;10.95;2.08;;;;;;;8.88;82.01;100106.19;6159035;23;20531;-75
2023/03/25 00:47:40;;;;;;;9.65;1.90;;;;;;;8.88;82.03;100114.16;6159129;23;20026;-74
2023/03/25 00:50:07;;;;;;;7.97;2.08;;;;;;;8.88;82.50;100114.91;6132207;23;20022;-75
2023/03/25 00:52:34;;;;;;;11.05;2.15;;;;;;;8.87;81.81;100110.03;6132903;23;20022;-75
2023/03/25 00:55:01;;;;;;;9.93;1.67;;;;;;;8.85;82.13;100115.03;6133280;23;20014;-75
2023/03/25 00:57:28;;;;;;;9.95;1.90;;;;;;;8.86;81.88;100111.22;6132659;23;20529;-74
2023/03/25 00:59:54;;;;;;;6.40;1.88;;;;;;;8.85;81.95;100115.78;6159236;23;20024;-75
2023/03/25 01:02:22;;;;;;;10.52;3.00;;;;;;;8.84;81.43;100109.00;6132382;23;20081;-75
2023/03/25 01:04:49;;;;;;;8.27;2.13;;;;;;;8.85;81.89;100112.38;6107882;23;20049;-75
2023/03/25 01:07:19;;;;;;;6.05;1.40;;;;;;;8.84;81.81;100119.59;6133000;23;20484;-75
2023/03/25 01:09:46;;;;;;;9.95;1.80;;;;;;;8.84;81.55;100118.88;6159227;23;20018;-75
2023/03/25 01:12:14;;;;;;;10.45;1.95;;;;;;;8.83;81.48;100120.06;6159146;23;20483;-75
2023/03/25 01:14:41;;;;;;;8.10;1.27;;;;;;;8.83;81.45;100120.78;6159372;23;20424;-74
2023/03/25 01:17:09;;;;;;;6.78;2.00;;;;;;;8.84;81.41;100110.91;6132582;23;20062;-75
2023/03/25 01:19:35;;;;;;;6.88;2.17;;;;;;;8.83;81.13;100123.44;6158662;23;20018;-74
2023/03/25 01:22:02;;;;;;;9.27;1.95;;;;;;;8.84;81.03;100108.25;6159011;23;20763;-74
2023/03/25 01:24:30;;;;;;;4.47;1.45;;;;;;;8.84;81.15;100114.31;6159154;23;20014;-73
2023/03/25 01:26:56;;;;;;;7.47;1.70;;;;;;;8.83;81.48;100107.50;6132321;23;20022;-74
2023/03/25 01:29:26;;;;;;;8.43;2.15;;;;;;;8.82;81.41;100114.00;6158527;23;20029;-74
2023/03/25 01:31:54;;;;;;;10.13;1.83;;;;;;;8.83;81.88;100104.88;6132259;23;20073;-74
2023/03/25 01:34:21;;;;;;;8.07;1.83;;;;;;;8.81;81.97;100103.81;6158322;23;20076;-73
2023/03/25 01:36:48;;;;;;;7.70;1.45;;;;;;;8.80;82.27;100095.13;6158852;23;20029;-74
2023/03/25 01:39:17;;;;;;;6.75;1.77;;;;;;;8.79;82.46;100093.69;6159224;23;20092;-74
2023/03/25 01:41:46;;;;;;;6.32;1.50;;;;;;;8.78;82.66;100099.44;6132368;23;20053;-74
2023/03/25 01:44:22;;;;;;;9.02;2.08;;;;;;;8.75;82.85;100095.75;6158995;23;20041;-74
2023/03/25 01:46:51;;;;;;;9.15;1.35;;;;;;;8.75;83.31;100103.69;6132697;23;20471;-74
2023/03/25 01:49:32;;;;;;;8.73;2.10;;;;;;;8.73;84.13;100100.00;6131876;23;20066;-73
2023/03/25 01:52:03;;;;;;;5.88;1.45;;;;;;;8.66;84.64;100099.13;6159011;23;20025;-73
2023/03/25 01:54:30;;;;;;;9.13;1.90;;;;;;;8.62;85.20;100103.84;6132770;23;20032;-74
2023/03/25 01:56:57;;;;;;;11.45;2.47;;;;;;;8.60;85.43;100102.78;6132466;23;20434;-74
2023/03/25 01:59:27;;;;;;;9.50;2.17;;;;;;;8.58;85.65;100099.84;6132408;23;20029;-74
2023/03/25 02:01:57;;;;;;;10.38;2.03;;;;;;;8.56;86.66;100102.19;6132109;23;20018;-73
2023/03/25 02:04:33;;;;;;;7.03;1.75;;;;;;;8.51;87.06;100105.44;6131535;23;20539;-73
2023/03/25 02:07:01;;;;;;;13.65;2.28;;;;;;;8.46;87.72;100090.09;6108301;23;20077;-73
2023/03/25 02:09:28;;;;;;;5.93;1.58;;;;;;;8.44;87.93;100098.47;6131984;23;20068;-73
2023/03/25 02:11:54;;;;;;;13.57;2.25;;;;;;;8.43;87.67;100098.94;6158739;23;20448;-73
2023/03/25 02:14:25;;;;;;;9.00;1.67;;;;;;;8.41;87.55;100101.28;6132713;23;20459;-74
2023/03/25 02:17:13;;;;;;;9.00;1.75;;;;;;;8.40;87.53;100102.47;6157905;23;20089;-73
2023/03/25 02:20:07;;;;;;;9.05;1.85;;;;;;;8.39;87.46;100095.69;6159333;23;20511;-74
2023/03/25 02:22:52;;;;;;;2.90;1.35;;;;;;;8.38;88.05;100096.88;6159128;23;20464;-74
2023/03/25 02:25:44;;;;;;;11.25;2.35;;;;;;;8.38;88.23;100091.56;6132048;23;20025;-73
2023/03/25 02:28:24;;;;;;;6.88;1.50;;;;;;;8.31;88.78;100097.88;6108028;23;20035;-74
2023/03/25 02:31:10;;;;;;;5.90;1.35;;;;;;;8.25;90.43;100092.41;6158426;23;20018;-74
2023/03/25 02:34:00;;;;;;;10.95;1.70;;;;;;;8.20;90.42;100094.88;6131921;23;20022;-74
2023/03/25 02:36:44;;;;;;;7.20;1.83;;;;;;;8.13;91.05;100087.94;6132151;23;20018;-74
2023/03/25 02:39:31;;;;;;;6.55;1.40;;;;;;;8.10;92.81;100086.16;6108370;23;20113;-73
2023/03/25 02:42:06;;;;;;;7.07;1.58;;;;;;;8.09;93.19;100087.34;6133091;23;20018;-74
2023/03/25 02:44:40;;;;;;;7.05;1.35;;;;;;;8.08;93.31;100090.41;6133368;23;20448;-74
2023/03/25 02:47:12;;;;;;;9.88;1.48;;;;;;;8.06;93.34;100087.47;6132822;23;20026;-74
2023/03/25 02:49:49;;;;;;;5.68;1.70;;;;;;;8.06;93.49;100082.91;6134013;23;20014;-73
2023/03/25 02:52:23;;;;;;;11.98;1.95;;;;;;;8.07;93.73;100089.69;6159981;23;20025;-73
2023/03/25 02:54:56;;;;;;;9.63;2.20;;;;;;;8.07;93.70;100081.00;6133999;23;20049;-74
2023/03/25 02:57:27;;;;;;;10.63;2.00;;;;;;;8.07;93.28;100094.97;6160009;23;20014;-74
2023/03/25 02:59:56;;;;;;;9.13;1.58;;;;;;;8.09;92.93;100094.53;6159921;23;20566;-74
2023/03/25 03:02:26;;;;;;;5.13;1.02;;;;;;;8.10;92.79;100088.81;6159294;23;20499;-73
2023/03/25 03:04:55;;;;;;;10.52;1.75;;;;;;;8.11;93.15;100079.69;6132900;23;20018;-75
2023/03/25 03:07:28;;;;;;;7.95;1.92;;;;;;;8.12;93.23;100077.75;6108851;23;20041;-74
2023/03/25 03:10:08;;;;;;;7.80;1.65;;;;;;;8.13;92.63;100069.38;6133268;23;20010;-74
2023/03/25 03:12:58;;;;;;;6.85;1.85;;;;;;;8.13;92.74;100072.03;6159703;23;20025;-74
2023/03/25 03:15:38;;;;;;;7.93;1.90;;;;;;;8.13;92.77;100063.34;6132915;23;20035;-74
2023/03/25 03:18:25;;;;;;;9.27;1.70;;;;;;;8.14;93.10;100070.84;6159605;23;20086;-73
2023/03/25 03:21:05;;;;;;;7.57;2.45;;;;;;;8.13;92.70;100060.69;6159695;23;20022;-74
2023/03/25 03:24:02;;;;;;;7.25;2.00;;;;;;;8.13;92.38;100066.72;6133359;23;20018;-73
2023/03/25 03:26:47;;;;;;;10.50;2.85;;;;;;;8.16;92.51;100071.16;6070034;23;20030;-74
2023/03/25 03:29:49;;;;;;;11.80;2.20;;;;;;;8.15;92.98;100069.69;6108210;23;20081;-74
2023/03/25 03:32:33;;;;;;;8.57;2.38;;;;;;;8.14;93.02;100068.19;6159297;23;20026;-75
2023/03/25 03:35:07;;;;;;;11.55;2.67;;;;;;;8.12;93.74;100064.50;6159636;23;20025;-73
2023/03/25 03:37:39;;;;;;;12.18;2.95;;;;;;;8.10;93.71;100064.94;6133577;23;20041;-74
2023/03/25 03:40:12;;;;;;;14.15;2.92;;;;;;;8.10;94.38;100066.84;6159671;23;20069;-74
2023/03/25 03:43:05;;;;;;;8.38;2.30;;;;;;;8.09;94.00;100057.44;6158072;23;20092;-74
2023/03/25 03:45:42;;;;;;;12.82;2.70;;;;;;;8.08;94.46;100054.03;6159108;23;20345;-73
2023/03/25 03:48:16;;;;;;;8.70;2.80;;;;;;;8.08;94.37;100056.69;6158893;23;20089;-73
2023/03/25 03:50:55;;;;;;;9.50;2.33;;;;;;;8.09;94.30;100057.44;6159614;23;20464;-73
2023/03/25 03:53:29;;;;;;;8.63;2.20;;;;;;;8.09;94.66;100063.47;6133224;23;20109;-74
2023/03/25 03:56:05;;;;;;;11.00;2.92;;;;;;;8.09;94.71;100052.13;6159468;23;20025;-73
2023/03/25 03:58:36;;;;;;;7.70;2.90;;;;;;;8.08;95.09;100048.00;6158902;23;20073;-73
2023/03/25 04:01:29;;;;;;;6.85;2.42;;;;;;;8.06;94.78;100053.00;6159204;23;20481;-73
2023/03/25 04:04:09;;;;;;;8.90;2.50;;;;;;;8.02;95.23;100045.19;6133045;23;20029;-73
2023/03/25 04:06:40;;;;;;;7.38;2.10;;;;;;;7.98;95.89;100041.97;6160062;23;20085;-73
2023/03/25 04:09:32;;;;;;;;;;;;;;;7.97;94.23;100035.94;6134205;23;20479;-74
2023/03/25 04:12:05;;;;;;;10.10;1.90;;;;;;;7.97;95.58;100046.53;6133300;23;20358;-73
2023/03/25 04:14:31;;;;;;;11.48;2.10;;;;;;;7.96;96.02;100047.69;6158793;23;20022;-73
2023/03/25 04:16:58;;;;;;;11.60;2.67;;;;;;;7.95;96.54;100037.53;6159080;23;20048;-73
2023/03/25 04:19:25;;;;;;;8.02;2.17;;;;;;;7.93;96.90;100042.53;6159501;23;20020;-73
2023/03/25 04:21:52;;;;;;;13.95;2.55;;;;;;;7.94;97.00;100041.34;6159414;23;20049;-72
2023/03/25 04:24:19;;;;;;;11.75;2.50;;;;;;;7.91;97.43;100028.97;6159549;23;20021;-73
2023/03/25 04:26:46;;;;;;;9.95;2.33;;;;;;;7.90;97.34;100032.81;6133010;23;20380;-73
2023/03/25 04:29:13;;;;;;;10.93;3.15;;;;;;;7.89;97.17;100042.66;6158461;23;20033;-73
2023/03/25 04:31:45;;;;;;;12.55;2.60;;;;;;;7.88;97.30;100024.56;6133164;23;20014;-73
2023/03/25 04:34:13;;;;;;;13.52;2.70;;;;;;;7.86;98.23;100042.81;6132879;23;20030;-73
2023/03/25 04:36:41;;;;;;;13.77;3.03;;;;;;;7.83;98.57;100041.03;6133212;23;20022;-73
2023/03/25 04:39:16;;;;;;;11.60;2.95;;;;;;;7.80;99.53;100028.66;6159458;23;20452;-75
2023/03/25 04:41:43;;;;;;;12.00;2.95;;;;;;;7.77;100.00;100027.59;6159454;23;20014;-73
2023/03/25 04:44:11;;;;;;;8.48;2.40;;;;;;;7.75;99.96;100034.50;6159207;23;20022;-74
2023/03/25 04:46:37;;;;;;;14.00;3.00;;;;;;;7.73;100.00;100019.06;6133486;23;20014;-73
2023/03/25 04:49:12;;;;;;;10.00;2.25;;;;;;;7.71;100.00;100050.53;6132329;23;20022;-73
2023/03/25 04:51:43;;;;;;;9.63;2.45;;;;;;;7.69;100.00;100061.56;6159562;23;20032;-73
2023/03/25 04:54:11;;;;;;;7.20;2.47;;;;;;;7.69;100.00;100066.88;6132723;23;20033;-74
2023/03/25 04:56:38;;;;;;;13.73;2.70;;;;;;;7.68;100.00;100060.09;6157614;23;20093;-74
2023/03/25 04:59:05;;;;;;;11.13;2.40;;;;;;;7.68;100.00;100067.31;6159164;23;20049;-74
2023/03/25 05:01:33;;;;;;;8.70;2.35;;;;;;;7.68;100.00;100057.44;6132887;23;20520;-74
2023/03/25 05:04:04;;;;;;;8.68;1.70;;;;;;;7.67;100.00;100074.50;6158440;23;20032;-74
2023/03/25 05:06:37;;;;;;;16.20;2.47;;;;;;;7.67;100.00;100061.25;6132774;23;20070;-74
2023/03/25 05:09:05;;;;;;;7.82;2.30;;;;;;;7.68;100.00;100075.25;6132903;23;20018;-74
2023/03/25 05:11:35;;;;;;;6.00;2.20;;;;;;;7.68;100.00;100070.69;6158347;23;20026;-74
2023/03/25 05:14:02;;;;;;;16.17;3.13;;;;;;;7.69;100.00;100063.47;6132528;23;20148;-73
2023/03/25 05:16:29;;;;;;;13.30;2.40;;;;;;;7.69;100.00;100061.56;6133187;23;20598;-75
2023/03/25 05:18:55;;;;;;;10.32;2.20;;;;;;;7.66;100.00;100070.38;6158895;23;20018;-75
2023/03/25 05:21:22;;;;;;;11.90;2.67;;;;;;;7.65;100.00;100060.97;6159093;23;20021;-75
2023/03/25 05:23:49;;;;;;;9.18;2.78;;;;;;;7.64;100.00;100064.03;6159133;23;20028;-75
2023/03/25 05:26:15;;;;;;;14.35;2.47;;;;;;;7.64;100.00;100070.09;6158724;23;20021;-75
2023/03/25 05:28:41;;;;;;;6.68;1.98;;;;;;;7.62;100.00;100080.38;6133038;23;20107;-75
2023/03/25 05:31:08;;;;;;;4.70;2.20;;;;;;;7.60;100.00;100072.13;6132678;23;20022;-75
2023/03/25 05:33:41;;;;;;;11.02;2.53;;;;;;;7.61;100.00;100070.94;6132834;23;20022;-75
2023/03/25 05:36:12;;;;;;;14.35;2.42;;;;;;;7.60;100.00;100074.03;6158897;23;20046;-76
2023/03/25 05:38:45;;;;;;;14.32;2.72;;;;;;;7.60;100.00;100058.88;6159322;23;20073;-75
2023/03/25 05:41:15;;;;;;;7.97;1.85;;;;;;;7.58;99.90;100066.53;6158496;23;20081;-75
2023/03/25 05:43:46;;;;;;;8.50;2.30;;;;;;;7.58;99.31;100069.19;6159183;23;20022;-75
2023/03/25 05:46:14;;;;;;;12.70;2.00;;;;;;;7.58;98.97;100073.75;6159063;23;20097;-75
2023/03/25 05:48:41;;;;;;;15.27;2.75;;;;;;;7.59;99.26;100083.91;6132404;23;20030;-75
2023/03/25 05:51:20;;;;;;;10.27;1.80;;;;;;;7.60;98.97;100085.38;6159178;23;20337;-75
2023/03/25 05:53:51;;;;;;;12.02;2.33;;;;;;;7.65;98.55;100084.06;6132302;23;20337;-76
2023/03/25 05:56:23;;;;;;;16.85;2.85;;;;;;;7.65;98.86;100089.38;6158382;23;20014;-76
2023/03/25 05:58:51;;;;;;;15.80;2.75;;;;;;;7.65;98.83;100087.44;6132913;23;20048;-75
2023/03/25 06:01:20;;;;;;;11.55;2.30;;;;;;;7.63;98.34;100089.78;6132964;23;20117;-75
2023/03/25 06:04:01;;;;;;;14.85;2.25;;;;;;;7.61;97.99;100084.19;6158882;23;20054;-76
2023/03/25 06:06:30;;;;;;;14.32;2.50;;;;;;;7.62;97.83;100092.88;6108572;23;20018;-76
2023/03/25 06:08:58;;;;;;;20.55;3.40;;;;;;;7.63;97.39;100100.41;6132403;23;20049;-76
2023/03/25 06:11:24;;;;;;;11.93;2.13;;;;;;;7.64;97.59;100104.53;6158432;23;20014;-75
2023/03/25 06:13:51;;;;;;;16.50;2.40;;;;;;;7.66;97.41;100104.09;6158763;23;20110;-75
2023/03/25 06:16:20;;;;;;;18.95;2.55;;;;;;;7.66;97.14;100096.88;6158726;23;20010;-75
2023/03/25 06:18:55;;;;;;;26.48;4.00;;;;;;;7.69;96.99;100097.91;6158501;23;20014;-75
2023/03/25 06:21:22;;;;;;;14.73;2.67;;;;;;;7.72;96.47;100099.69;6158654;23;20014;-76
2023/03/25 06:23:50;;;;;;;13.73;3.08;;;;;;;7.75;96.17;100101.50;6158348;23;20002;-75
2023/03/25 06:26:19;;;;;;;20.42;2.40;;;;;;;7.79;96.10;100096.78;6132853;23;20018;-74
2023/03/25 06:28:45;;;;;;;14.40;2.17;;;;;;;7.86;96.08;100090.50;6133249;23;20073;-74
2023/03/25 06:31:19;;;;;;;14.65;2.35;;;;;;;7.99;96.04;100089.22;6132903;23;20104;-74
2023/03/25 06:33:47;;;;;;;15.45;2.50;;;;;;;8.72;94.47;100103.84;6159084;23;20085;-74
2023/03/25 06:36:19;;;;;;;11.13;2.53;;;;;;;9.36;90.41;100097.31;6131988;23;20069;-74
2023/03/25 06:38:49;;;;;;;17.70;2.83;;;;;;;9.02;90.09;100095.72;6158256;23;20099;-74
2023/03/25 06:41:19;;;;;;;5.00;2.03;;;;;;;8.60;91.32;100113.41;6132050;23;20026;-74
2023/03/25 06:43:52;;;;;;;11.48;2.55;;;;;;;8.30;92.90;100096.38;6132686;23;20026;-75
2023/03/25 06:46:38;;;;;;;13.57;2.60;;;;;;;8.13;95.02;100105.75;6159746;23;20109;-75
2023/03/25 06:49:31;;;;;;;17.38;2.33;;;;;;;8.01;96.27;100112.63;6135079;23;20836;-77
2023/03/25 06:51:58;;;;;;;9.60;1.90;;;;;;;7.90;97.17;100115.69;6133358;23;20123;-75
2023/03/25 06:54:25;;;;;;;14.52;2.38;;;;;;;7.84;97.69;100119.34;6159393;23;20018;-73
2023/03/25 06:56:51;;;;;;;13.63;2.58;;;;;;;7.78;98.72;100113.88;6160054;23;20109;-74
2023/03/25 06:59:18;;;;;;;13.25;2.63;;;;;;;7.73;98.87;100125.03;6159544;23;20078;-75
2023/03/25 07:01:45;;;;;;;14.68;2.58;;;;;;;7.70;99.65;100139.88;6109166;23;20022;-76
2023/03/25 07:04:11;;;;;;;13.93;2.13;;;;;;;7.71;99.92;100124.72;6159252;23;20495;-76
2023/03/25 07:06:38;;;;;;;16.25;2.58;;;;;;;7.73;99.86;100132.25;6159717;23;20048;-76
2023/03/25 07:09:05;;;;;;;9.18;2.35;;;;;;;7.71;100.00;100124.72;6158586;23;20018;-76
2023/03/25 07:11:32;;;;;;;14.02;2.70;;;;;;;7.73;100.00;100122.38;6158830;23;20326;-75
2023/03/25 07:13:59;;;;;;;13.45;2.53;;;;;;;7.72;100.00;100138.72;6159330;23;20433;-76
2023/03/25 07:16:27;;;;;;;12.13;2.08;;;;;;;7.68;100.00;100128.97;6132456;23;20022;-76
2023/03/25 07:18:55;;;;;;;15.80;3.00;;;;;;;7.64;100.00;100138.97;6159418;23;20338;-76
2023/03/25 07:21:22;;;;;;;6.05;1.60;;;;;;;7.59;100.00;100136.91;6158354;23;20437;-75
2023/03/25 07:23:49;;;;;;;11.40;2.63;;;;;;;7.60;100.00;100140.25;6159519;23;20416;-75
2023/03/25 07:26:16;;;;;;;12.05;2.15;;;;;;;7.58;100.00;100138.06;6159090;23;20014;-75
2023/03/25 07:28:42;;;;;;;9.77;2.40;;;;;;;7.63;100.00;100140.13;6134409;23;20380;-76
2023/03/25 07:31:11;;;;;;;9.25;2.20;;;;;;;7.65;100.00;100137.78;6160371;23;20022;-75
2023/03/25 07:33:39;;;;;;;12.63;2.28;;;;;;;7.64;100.00;100141.59;6160505;23;20053;-75
2023/03/25 07:36:07;;;;;;;13.15;2.72;;;;;;;7.69;100.00;100145.59;6160201;23;20014;-75
2023/03/25 07:38:34;;;;;;;15.00;2.40;;;;;;;7.75;100.00;100151.09;6160517;23;20022;-75
2023/03/25 07:41:10;;;;;;;10.57;2.05;;;;;;;7.81;100.00;100136.13;6160833;23;20022;-74
2023/03/25 07:43:40;;;;;;;13.88;2.25;;;;;;;7.89;100.00;100139.97;6133751;23;20022;-75
2023/03/25 07:46:21;;;;;;;13.98;2.65;;;;;;;8.06;100.00;100145.78;6133822;23;20029;-74
2023/03/25 07:48:47;;;;;;;9.05;2.47;;;;;;;8.16;100.00;100134.78;6160334;23;20014;-74
2023/03/25 07:51:14;;;;;;;15.25;2.90;;;;;;;8.17;100.00;100141.56;6159482;23;20470;-75
2023/03/25 07:53:43;;;;;;;13.77;2.78;;;;;;;8.21;100.00;100141.44;6160786;23;20056;-76
2023/03/25 07:56:10;;;;;;;13.23;2.83;;;;;;;8.19;100.00;100147.16;6160321;23;20018;-76
2023/03/25 07:58:37;;;;;;;14.98;2.92;;;;;;;8.18;100.00;100143.03;6134250;23;20109;-75
2023/03/25 08:01:04;;;;;;;13.60;2.55;;;;;;;8.13;100.00;100138.31;6160194;23;20018;-75
2023/03/25 08:03:32;;;;;;;24.38;2.70;;;;;;;8.11;100.00;100145.94;6133574;23;20030;-75
2023/03/25 08:06:00;;;;;;;10.52;2.70;;;;;;;8.13;100.00;100142.88;6159799;23;20040;-75
2023/03/25 08:08:30;;;;;;;18.85;3.00;;;;;;;8.14;100.00;100147.00;6160203;23;20689;-75
2023/03/25 08:10:57;;;;;;;15.73;2.83;;;;;;;8.15;100.00;100151.88;6160528;23;20022;-76
2023/03/25 08:13:24;;;;;;;10.85;2.30;;;;;;;8.15;100.00;100143.91;6133696;23;20073;-76
2023/03/25 08:15:51;;;;;;;13.45;2.55;;;;;;;8.18;100.00;100155.56;6133935;23;20093;-75
2023/03/25 08:18:19;;;;;;;17.85;2.95;;;;;;;8.19;100.00;100149.81;6160214;23;20069;-76
2023/03/25 08:20:48;;;;;;;17.63;2.38;;;;;;;8.23;100.00;100150.44;6108815;23;20018;-75
2023/03/25 08:23:18;;;;;;;19.50;3.25;;;;;;;8.25;100.00;100157.94;6160051;23;20018;-76
2023/03/25 08:25:48;;;;;;;11.13;2.33;;;;;;;8.24;100.00;100165.16;6134388;23;20089;-75
2023/03/25 08:28:20;;;;;;;19.20;2.83;;;;;;;8.20;100.00;100156.59;6133327;23;20017;-77
2023/03/25 08:30:53;;;;;;;12.65;2.58;;;;;;;8.17;100.00;100160.13;6160333;23;20091;-76
2023/03/25 08:33:25;;;;;;;12.43;2.47;;;;;;;8.21;100.00;100168.69;6160011;23;20022;-74
2023/03/25 08:35:55;;;;;;;16.80;2.80;;;;;;;8.23;100.00;100176.94;6160121;23;20036;-75
2023/03/25 08:38:24;;;;;;;20.38;2.90;;;;;;;8.39;100.00;100170.69;6159446;23;20049;-75
2023/03/25 08:40:50;;;;;;;14.75;2.30;;;;;;;8.46;100.00;100175.72;6134286;23;20348;-75
2023/03/25 08:43:17;;;;;;;19.02;2.92;;;;;;;8.44;100.00;100166.72;6160037;23;20024;-75
2023/03/25 08:45:44;;;;;;;11.32;2.40;;;;;;;8.41;100.00;100168.31;6133810;23;20101;-75
2023/03/25 08:48:10;;;;;;;15.60;3.38;;;;;;;8.44;100.00;100166.72;6159861;23;20022;-74
2023/03/25 08:50:37;;;;;;;11.90;2.50;;;;;;;8.46;100.00;100174.97;6159726;23;20026;-74
2023/03/25 08:53:04;;;;;;;18.35;3.47;;;;;;;8.54;100.00;100168.22;6134195;23;20018;-75
2023/03/25 08:55:31;;;;;;;20.55;2.90;;;;;;;8.77;100.00;100169.59;6109399;23;20018;-75
2023/03/25 08:58:02;;;;;;;17.33;2.83;;;;;;;8.92;100.00;100168.56;6160364;23;20021;-75
2023/03/25 09:00:29;;;;;;;12.85;2.45;;;;;;;9.07;99.79;100173.31;6159836;23;20014;-74
2023/03/25 09:02:58;;;;;;;15.68;2.63;;;;;;;9.22;98.40;100172.28;6159693;23;20444;-75
2023/03/25 09:05:25;;;;;;;11.07;2.95;;;;;;;9.39;98.03;100175.38;6133796;23;20021;-74
2023/03/25 09:07:52;;;;;;;16.33;2.45;;;;;;;9.48;96.78;100178.03;6160335;23;20471;-75
2023/03/25 09:10:19;;;;;;;20.52;3.50;;;;;;;9.49;96.08;100178.75;6159797;23;20022;-75
2023/03/25 09:12:45;;;;;;;13.02;2.38;;;;;;;9.52;96.02;100173.31;6160219;23;20113;-75
2023/03/25 09:15:12;;;;;;;17.85;3.00;;;;;;;9.62;95.77;100171.34;6159777;23;20096;-75
2023/03/25 09:17:41;;;;;;;25.73;3.80;;;;;;;9.64;94.85;100177.69;6159590;23;20022;-75
2023/03/25 09:20:08;;;;;;;18.98;3.05;;;;;;;9.59;94.42;100170.34;6160147;23;20499;-75
2023/03/25 09:22:38;;;;;;;14.07;2.95;;;;;;;9.63;94.95;100173.56;6133598;23;20053;-76
2023/03/25 09:25:05;;;;;;;20.08;3.80;;;;;;;9.69;94.78;100182.41;6109450;23;20010;-75
2023/03/25 09:27:33;;;;;;;17.45;3.78;;;;;;;9.66;93.93;100179.91;6134007;23;20069;-75
2023/03/25 09:30:00;;;;;;;19.25;3.53;;;;;;;9.66;94.17;100188.63;6134110;23;20093;-74
2023/03/25 09:32:26;;;;;;;13.82;3.00;;;;;;;9.66;94.35;100188.63;6133091;23;20021;-74
2023/03/25 09:34:53;;;;;;;22.35;3.38;;;;;;;9.87;93.70;100186.94;6160097;23;20014;-75
2023/03/25 09:37:20;;;;;;;23.23;3.72;;;;;;;10.07;93.11;100191.03;6159818;23;20376;-75
2023/03/25 09:39:46;;;;;;;20.42;3.15;;;;;;;10.18;92.82;100180.66;6159809;23;20025;-75
2023/03/25 09:42:32;;;;;;;24.90;3.22;;;;;;;10.42;91.92;100191.34;6159658;23;20022;-75
2023/03/25 09:45:20;;;;;;;26.80;3.65;;;;;;;10.47;91.45;100188.06;6160162;23;20022;-73
2023/03/25 09:48:02;;;;;;;16.58;2.80;;;;;;;10.27;90.42;100185.97;6133287;23;20032;-74
2023/03/25 09:50:32;;;;;;;17.30;3.00;;;;;;;10.09;89.56;100196.63;6159175;23;20460;-75
2023/03/25 09:53:18;;;;;;;20.13;3.10;;;;;;;9.99;90.29;100193.28;6160241;23;20018;-74
2023/03/25 09:55:45;;;;;;;17.33;3.25;;;;;;;9.95;89.23;100192.69;6160249;23;20746;-74
2023/03/25 09:58:33;;;;;;;13.70;3.10;;;;;;;9.96;89.84;100202.16;6133320;23;20018;-75
2023/03/25 10:01:13;;;;;;;17.88;3.28;;;;;;;9.96;89.20;100192.25;6159590;23;20029;-75
2023/03/25 10:03:42;;;;;;;15.90;3.22;;;;;;;9.93;88.27;100189.75;6133769;23;20029;-75
2023/03/25 10:06:19;;;;;;;16.55;3.28;;;;;;;9.94;88.36;100196.53;6157669;23;20025;-76
2023/03/25 10:09:04;;;;;;;21.17;3.33;;;;;;;9.88;87.81;100199.06;6133492;23;20021;-74
2023/03/25 10:11:37;;;;;;;18.75;3.03;;;;;;;9.91;87.34;100202.75;6159538;23;20014;-75
2023/03/25 10:14:20;;;;;;;18.73;3.15;;;;;;;10.02;88.55;100198.41;6133663;23;20081;-76
2023/03/25 10:17:09;;;;;;;16.27;3.17;;;;;;;10.11;88.11;100205.63;6158956;23;20014;-77
2023/03/25 10:20:03;;;;;;;14.95;3.40;;;;;;;10.08;87.63;100205.78;6109186;23;20120;-75
2023/03/25 10:22:45;;;;;;;15.98;2.85;;;;;;;10.06;88.08;100213.47;6144738;23;20487;-77
2023/03/25 10:25:17;;;;;;;15.90;3.33;;;;;;;10.11;88.01;100224.25;6133109;23;20495;-75
2023/03/25 10:27:48;;;;;;;21.17;3.50;;;;;;;10.12;86.05;100220.41;6159821;23;20021;-76
2023/03/25 10:30:21;;;;;;;21.17;3.22;;;;;;;10.09;85.96;100215.97;6132300;23;20038;-76
2023/03/25 10:33:00;;;;;;;16.98;3.08;;;;;;;10.08;85.47;100216.44;6159614;23;20056;-76
2023/03/25 10:35:35;;;;;;;13.60;2.88;;;;;;;10.07;84.66;100209.63;6159090;23;20021;-76
2023/03/25 10:38:19;;;;;;;17.75;2.92;;;;;;;10.14;85.18;100215.38;6159533;23;20014;-76
2023/03/25 10:40:51;;;;;;;18.73;3.40;;;;;;;10.19;84.51;100216.69;6160310;23;20014;-77
2023/03/25 10:43:36;;;;;;;12.65;2.78;;;;;;;10.31;83.70;100211.22;6159285;23;20014;-76
2023/03/25 10:46:57;;;;;;;16.90;3.10;;;;;;;10.40;83.45;100220.34;6159161;23;20018;-76
2023/03/25 10:49:28;;;;;;;10.63;2.42;;;;;;;10.47;82.17;100222.66;6039053;23;20020;-76
2023/03/25 10:51:58;;;;;;;17.65;2.63;;;;;;;10.48;81.81;100227.53;6064173;23;20032;-75
2023/03/25 10:54:32;;;;;;;15.73;3.30;;;;;;;10.49;81.82;100215.72;6039610;23;20183;-75
2023/03/25 10:57:03;;;;;;;17.23;3.17;;;;;;;10.46;80.04;100227.25;6015824;23;20031;-75
2023/03/25 10:59:59;;;;;;;13.43;2.85;;;;;;;10.44;82.41;100237.59;6037026;23;20047;-74
2023/03/25 11:02:29;;;;;;;19.58;3.35;;;;;;;10.25;82.84;100231.63;6013327;23;20023;-74
2023/03/25 11:05:05;;;;;;;21.02;3.72;;;;;;;10.21;84.33;100244.34;6015937;23;20478;-74
2023/03/25 11:07:36;;;;;;;23.35;3.65;;;;;;;10.24;83.97;100246.13;6040056;23;20028;-74
2023/03/25 11:10:24;;;;;;;11.93;2.90;;;;;;;10.30;84.03;100243.59;6040967;23;20060;-73
2023/03/25 11:12:52;;;;;;;18.77;2.78;;;;;;;10.34;83.77;100239.59;6016542;23;20039;-73
2023/03/25 11:15:35;;;;;;;10.30;2.63;;;;;;;10.43;81.88;100244.13;6039984;23;20020;-74
2023/03/25 11:18:13;;;;;;;12.20;3.00;;;;;;;10.44;81.53;100242.94;6039544;23;20425;-74
2023/03/25 11:21:03;;;;;;;18.35;3.13;;;;;;;10.38;83.14;100244.00;6063888;23;20027;-74
2023/03/25 11:23:35;;;;;;;17.00;3.15;;;;;;;10.35;82.92;100249.03;6095196;23;20018;-73
2023/03/25 11:26:07;;;;;;;16.42;2.90;;;;;;;10.43;80.92;100243.38;6134225;23;20045;-73
2023/03/25 11:28:40;;;;;;;14.07;2.75;;;;;;;10.61;80.14;100257.34;6133369;23;20413;-74
2023/03/25 11:31:22;;;;;;;14.93;2.70;;;;;;;10.57;80.63;100243.47;6159265;23;20073;-75
2023/03/25 11:34:12;;;;;;;15.48;2.70;;;;;;;10.45;80.57;100247.06;6160432;23;20093;-76
2023/03/25 11:36:47;;;;;;;14.23;2.58;;;;;;;10.40;81.10;100249.63;6159524;23;20428;-76
2023/03/25 11:39:25;;;;;;;12.90;3.00;;;;;;;10.30;81.42;100264.88;6160239;23;20368;-76
2023/03/25 11:41:52;;;;;;;14.50;3.17;;;;;;;10.39;81.61;100267.50;6160446;23;20021;-76
2023/03/25 11:44:26;;;;;;;17.17;3.10;;;;;;;10.46;80.94;100247.81;6159449;23;20113;-76
2023/03/25 11:46:56;;;;;;;14.35;3.20;;;;;;;10.44;78.90;100250.91;6160368;23;20099;-76